Flight Track Log - Related Links

Times and Time Zones

All times are in EDT time to prevent confusion due to time zone crossing. See the DAL3691 flight status page for this flight to view local times or setup timezone preferences in your user account.

Time Position Orientation Groundspeed Altitude Reporting Facility
EDT Latitude Longitude Course Direction KTS MPH feet Rate Location/Type
Tue 06:31:41 PM 40.6047 -73.7697 223° Southwest 184 212 2,100  Level New York Center
Tue 06:32:42 PM 40.5578 -73.7322 149° Southeast 211 243 3,800 1,426 Climbing New York Center
Tue 06:33:43 PM 40.4969 -73.6667 141° Southeast 245 282 5,000 610 Climbing New York Center
Tue 06:34:00 PM 40.3069 -73.4569 143° Southeast  Level FlightAware Approximate
Tue 06:34:40 PM 40.4422 -73.6100 142° Southeast 250 288 5,000  Level New York Center
Tue 06:35:00 PM 40.2267 -73.3774 146° Southeast  Level FlightAware Approximate
Tue 06:35:41 PM 40.3853 -73.5503 141° Southeast 255 293 5,500  Level New York Center
Tue 06:36:00 PM 40.1408 -73.3010 146° Southeast  Level FlightAware Approximate
Tue 06:36:42 PM 40.3283 -73.4908 141° Southeast 267 307 8,900  Level New York Center
Tue 06:37:00 PM 40.0581 -73.2803 223° Southwest  Level FlightAware Approximate
Tue 06:37:41 PM 40.2650 -73.4367 147° Southeast 272 313 10,800  Level New York Center
Tue 06:39:46 PM 40.0719 -73.4742 188° South 331 381 13,900 1,672 Climbing Washington Center
Tue 06:40:44 PM 39.9722 -73.4906 187° South 353 406 15,900 1,765 Climbing Washington Center
Tue 06:41:45 PM 39.8744 -73.5069 187° South 360 414 17,400 1,426 Climbing Washington Center
Tue 06:42:46 PM 39.7794 -73.5611 204° Southwest 360 414 18,800 1,438 Climbing Washington Center
Tue 06:43:46 PM 39.6931 -73.6256 210° Southwest 360 414 20,300 1,322 Climbing Washington Center
Tue 06:44:44 PM 39.6175 -73.7219 225° Southwest 365 420 21,400 1,068 Climbing Washington Center
Tue 06:45:44 PM 39.5483 -73.8261 229° Southwest 376 433 22,400 942 Climbing Washington Center
Tue 06:46:45 PM 39.4728 -73.9300 227° Southwest 389 448 23,300 893 Climbing Washington Center
Tue 06:47:45 PM 39.3969 -74.0339 227° Southwest 394 453 24,200 843 Climbing Washington Center
Tue 06:48:46 PM 39.3106 -74.1189 217° Southwest 394 453 25,000 645 Climbing Washington Center
Tue 06:49:46 PM 39.2219 -74.2011 216° Southwest 394 453 25,500 508 Climbing Washington Center
Tue 06:50:44 PM 39.1292 -74.2831 214° Southwest 400 460 26,000 555 Climbing Washington Center
Tue 06:51:45 PM 39.0361 -74.3650 214° Southwest 406 467 26,600 541 Climbing Washington Center
Tue 06:52:46 PM 38.9431 -74.4494 215° Southwest 411 473 27,100 504 Climbing Washington Center
Tue 06:53:44 PM 38.8481 -74.5308 214° Southwest 416 479 27,600 504 Climbing Washington Center
Tue 06:54:45 PM 38.7528 -74.6147 214° Southwest 416 479 28,100 492 Climbing Washington Center
Tue 06:55:46 PM 38.6597 -74.7011 216° Southwest 416 479 28,600 504 Climbing Washington Center
Tue 06:56:44 PM 38.5622 -74.7844 214° Southwest 422 486 29,100 504 Climbing Washington Center
Tue 06:57:45 PM 38.4669 -74.8678 214° Southwest 422 486 29,600 450 Climbing Washington Center
Tue 06:58:44 PM 38.3714 -74.9481 213° Southwest 422 486 30,000 200 Climbing Washington Center
Tue 06:59:45 PM 38.2781 -75.0336 216° Southwest 422 486 30,000  Level Washington Center
Tue 07:00:45 PM 38.1783 -75.1164 213° Southwest 422 486 30,000 -50 Level Washington Center
Tue 07:01:46 PM 38.0786 -75.2039 215° Southwest 422 486 29,900 202 Descending Washington Center
Tue 07:02:44 PM 37.9808 -75.2942 216° Southwest 434 499 30,400 661 Climbing Washington Center
Tue 07:03:44 PM 37.8789 -75.3733 212° Southwest 434 499 31,200 744 Climbing Washington Center
Tue 07:04:45 PM 37.7853 -75.4578 215° Southwest 434 499 31,900 397 Climbing Washington Center
Tue 07:05:45 PM 37.6872 -75.5367 212° Southwest 429 494 32,000 50 Climbing Washington Center
Tue 07:06:46 PM 37.5914 -75.6206 215° Southwest 424 488 32,000  Level Washington Center
Tue 07:07:44 PM 37.4931 -75.7044 214° Southwest 424 488 32,000  Level Washington Center
Tue 07:08:46 PM 37.3950 -75.7853 213° Southwest 424 488 32,000  Level Washington Center
Tue 07:09:46 PM 37.2969 -75.8661 213° Southwest 424 488 32,000  Level Washington Center
Tue 07:10:47 PM 37.1986 -75.9492 214° Southwest 424 488 32,000  Level Washington Center
Tue 07:11:45 PM 37.1025 -76.0294 214° Southwest 424 488 32,000  Level Washington Center
Tue 07:12:45 PM 37.0144 -76.1017 213° Southwest 424 488 32,000  Level Washington Center
Tue 07:13:45 PM 36.9119 -76.1817 212° Southwest 430 495 32,000  Level Washington Center
Tue 07:14:45 PM 36.8156 -76.2639 214° Southwest 430 495 32,000  Level Washington Center
Tue 07:15:45 PM 36.7211 -76.3511 217° Southwest 430 495 32,000  Level Washington Center
Tue 07:16:45 PM 36.6286 -76.4408 218° Southwest 430 495 32,000  Level Washington Center
Tue 07:17:44 PM 36.5322 -76.5278 216° Southwest 430 495 32,000  Level Washington Center
Tue 07:18:44 PM 36.4375 -76.6144 216° Southwest 430 495 32,000  Level Washington Center
Tue 07:19:45 PM 36.3428 -76.6983 216° Southwest 430 495 32,000  Level Washington Center
Tue 07:20:45 PM 36.2483 -76.7819 216° Southwest 430 495 32,000  Level Washington Center
Tue 07:21:46 PM 36.1533 -76.8653 215° Southwest 430 495 32,000  Level Washington Center
Tue 07:22:44 PM 36.0608 -76.9486 216° Southwest 430 495 32,000  Level Washington Center
Tue 07:23:44 PM 35.9658 -77.0317 215° Southwest 430 495 32,000  Level Washington Center
Tue 07:24:45 PM 35.8731 -77.1172 217° Southwest 430 495 32,000  Level Washington Center
Tue 07:25:46 PM 35.7822 -77.2000 216° Southwest 423 487 32,000  Level Washington Center
Tue 07:26:46 PM 35.6872 -77.2800 214° Southwest 418 481 32,000  Level Washington Center
Tue 07:27:45 PM 35.5942 -77.3647 217° Southwest 418 481 32,000  Level Washington Center
Tue 07:28:45 PM 35.4992 -77.4442 214° Southwest 418 481 32,000  Level Washington Center
Tue 07:29:46 PM 35.4039 -77.5261 215° Southwest 418 481 32,000  Level Washington Center
Tue 07:30:44 PM 35.3169 -77.6131 219° Southwest 418 481 32,000  Level Washington Center
Tue 07:31:45 PM 35.2297 -77.7025 220° Southwest 412 474 32,000  Level Washington Center
Tue 07:32:45 PM 35.1428 -77.7917 220° Southwest 412 474 32,000  Level Washington Center
Tue 07:33:46 PM 35.0556 -77.8806 220° Southwest 412 474 32,000 -252 Level Washington Center
Tue 07:34:44 PM 34.9703 -77.9744 222° Southwest 412 474 31,500 -504 Descending Washington Center
Tue 07:35:45 PM 34.8808 -78.0631 219° Southwest 412 474 31,000 -515 Descending Washington Center
Tue 07:37:27 PM 34.7283 -78.2272 222° Southwest 417 480 30,100 -630 Descending Jacksonville Center
Tue 07:38:27 PM 34.6378 -78.3153 219° Southwest 422 486 29,300 -800 Descending Jacksonville Center
Tue 07:39:27 PM 34.5533 -78.4031 221° Southwest 414 476 28,500 -650 Descending Jacksonville Center
Tue 07:40:27 PM 34.4686 -78.4853 219° Southwest 408 470 28,000 -250 Descending Jacksonville Center
Tue 07:41:27 PM 34.3819 -78.5728 220° Southwest 408 470 28,000  Level Jacksonville Center
Tue 07:42:27 PM 34.2953 -78.6600 220° Southwest 413 475 28,000 -300 Level Jacksonville Center
Tue 07:43:27 PM 34.2150 -78.7544 224° Southwest 413 475 27,400 -800 Descending Jacksonville Center
Tue 07:44:27 PM 34.1325 -78.8461 223° Southwest 407 468 26,400 -950 Descending Jacksonville Center
Tue 07:45:27 PM 34.0519 -78.9375 223° Southwest 407 468 25,500 -950 Descending Jacksonville Center
Tue 07:46:27 PM 33.9672 -79.0339 223° Southwest 412 474 24,500 -1,250 Descending Jacksonville Center
Tue 07:47:27 PM 33.8844 -79.1278 223° Southwest 412 474 23,000 -1,500 Descending Jacksonville Center
Tue 07:48:27 PM 33.7997 -79.2236 223° Southwest 412 474 21,500 -1,400 Descending Jacksonville Center
Tue 07:49:27 PM 33.6997 -79.3028 213° Southwest 412 474 20,200 -1,750 Descending Jacksonville Center
Tue 07:50:27 PM 33.6078 -79.3739 213° Southwest 399 459 18,000 -2,350 Descending Jacksonville Center
Tue 07:51:27 PM 33.5158 -79.4447 213° Southwest 399 459 15,500 -2,500 Descending Jacksonville Center
Tue 07:52:27 PM 33.4258 -79.5106 211° Southwest 394 453 13,000 -2,250 Descending Jacksonville Center
Tue 07:53:27 PM 33.3508 -79.5906 222° Southwest 382 440 11,000 -1,100 Descending Jacksonville Center
Tue 07:54:27 PM 33.2822 -79.6800 227° Southwest 370 426 10,800 -850 Descending Jacksonville Center
Tue 07:55:27 PM 33.2297 -79.7489 228° Southwest 335 386 9,300 -1,850 Descending Jacksonville Center
Tue 07:56:27 PM 33.1792 -79.8153 228° Southwest 292 336 7,100 -2,200 Descending Jacksonville Center
Tue 07:57:27 PM 33.1325 -79.8739 226° Southwest 267 307 4,900 -2,100 Descending Jacksonville Center
Tue 07:58:27 PM 33.0817 -79.9325 224° Southwest 256 295 2,900 -1,600 Descending Jacksonville Center
Tue 07:59:27 PM 33.0222 -79.9717 209° Southwest 251 289 1,700 -1,200 Descending Jacksonville Center

Login

Don't have an account? Register now (free) for customized features, flight alerts, and more!